ADDS METAR Data INFO
IDs: Format: Raw Decoded Include TAF

Data at: 0314 UTC 22 Apr 2018

KLOT 220255Z AUTO 06007KT 10SM CLR 07/M05 A3038 RMK AO2 T00681054
KLOT 220235Z AUTO 06006KT 10SM CLR 07/M05 A3039 RMK AO2 T00711052
KLOT 220215Z AUTO 05005KT 10SM CLR 07/M04 A3038 RMK AO2 T00701045
KLOT 220155Z AUTO 06006KT 10SM CLR 08/M05 A3037 RMK AO2 T00751050
KLOT 220135Z AUTO 07010KT 10SM CLR 08/M04 A3036 RMK AO2 T00771044
KLOT 220115Z AUTO 07008KT 10SM CLR 08/M04 A3035 RMK AO2 T00791037
KLOT 220055Z AUTO 05007KT 10SM CLR 09/M03 A3036 RMK AO2 T00851034
KLOT 220035Z AUTO 06008KT 10SM CLR 09/M04 A3036 RMK AO2 T00901036
KLOT 220015Z AUTO 08008KT 10SM CLR 10/M04 A3035 RMK AO2 T00961040
KLOT 212355Z AUTO 08007KT 10SM CLR 10/M04 A3035 RMK AO2 T01001036 10133 20100
KLOT 212335Z AUTO 08008KT 10SM CLR 10/M04 A3035 RMK AO2 T01041041
KLOT 212315Z AUTO 09008KT 10SM CLR 11/M04 A3035 RMK AO2 T01091039
KLOT 212255Z AUTO 08008KT 10SM CLR 11/M03 A3035 RMK AO2 T01121028
KLOT 212235Z AUTO 09006KT 10SM CLR 12/M01 A3035 RMK AO2 T01151014
KLOT 212215Z AUTO 11009KT 10SM CLR 12/M01 A3035 RMK AO2 T01201015
KLOT 212155Z AUTO 08010G14KT 10SM CLR 13/00 A3036 RMK AO2 T01321001
KLOT 212135Z AUTO 09008KT 10SM CLR 13/00 A3036 RMK AO2 T01301003
KLOT 212115Z AUTO 10009KT 10SM CLR 13/M01 A3037 RMK AO2 T01291008
KLOT 212055Z AUTO 06003KT 10SM SCT075 13/M01 A3038 RMK AO2 T01251009
KLOT 212035Z AUTO 09007KT 10SM BKN075 13/M01 A3039 RMK AO2 T01251008
KLOT 212015Z AUTO 08004KT 10SM SCT055 SCT065 OVC075 13/00 A3040 RMK AO2 T01271002
KLOT 211955Z AUTO 05009KT 10SM BKN055 OVC065 12/01 A3040 RMK AO2 T01200006
KLOT 211935Z AUTO 04003KT 10SM DZ SCT040 OVC055 11/00 A3042 RMK AO2 T01141005
KLOT 211915Z AUTO 00000KT 10SM -RA BKN065 OVC070 12/M02 A3042 RMK AO2 T01151018
KLOT 211855Z AUTO 00000KT 10SM -DZ OVC065 11/M01 A3042 RMK AO2 T01111008
KLOT 211835Z AUTO 34003KT 10SM -RA BKN070 OVC080 12/M01 A3042 RMK AO2 T01171008
KLOT 211815Z AUTO 30003KT 10SM SCT070 BKN090 12/M01 A3042 RMK AO2 T01181010
KLOT 211755Z AUTO 00000KT 10SM SCT060 SCT070 BKN090 12/M01 A3042 RMK AO2 T01171011 10118 20061
KLOT 211735Z AUTO 26004KT 10SM BKN060 OVC070 12/00 A3042 RMK AO2 T01171005
KLOT 211715Z AUTO 23005KT 10SM OVC060 12/00 A3042 RMK AO2 T01161002
KLOT 211655Z AUTO 21007KT 10SM -DZ SCT031 BKN060 OVC070 11/00 A3042 RMK AO2 T01110002
KLOT 211635Z AUTO 19004KT 10SM -DZ SCT026 BKN047 OVC070 11/00 A3044 RMK AO2 T01050000
KLOT 211615Z AUTO 00000KT 10SM BKN050 OVC070 10/M03 A3045 RMK AO2 T00961026
KLOT 211555Z AUTO 00000KT 10SM SCT060 OVC070 09/M04 A3045 RMK AO2 T00891037
KLOT 211535Z AUTO 04003KT 10SM BKN070 OVC085 09/M03 A3047 RMK AO2 T00871031
KLOT 211515Z AUTO 00000KT 10SM BKN060 OVC070 09/M04 A3046 RMK AO2 T00851036
KLOT 211455Z AUTO 19005KT 10SM BKN060 OVC070 08/M03 A3046 RMK AO2 T00811034
KLOT 211435Z AUTO 00000KT 10SM BKN070 OVC080 08/M04 A3046 RMK AO2 LTG DSNT SW T00771043
KLOT 211415Z AUTO 00000KT 10SM BKN075 OVC080 07/M02 A3046 RMK AO2 T00731017
KLOT 211355Z AUTO 00000KT 7SM OVC090 07/M03 A3045 RMK AO2 T00731032
KLOT 211335Z AUTO 00000KT 10SM OVC090 07/M04 A3045 RMK AO2 T00741042
KLOT 211315Z AUTO 00000KT 10SM OVC080 07/M03 A3045 RMK AO2 T00711035
KLOT 211255Z AUTO 00000KT 10SM BKN080 OVC100 07/M03 A3045 RMK AO2 T00721028
KLOT 211235Z AUTO 00000KT 10SM BKN090 BKN110 07/M05 A3044 RMK AO2 T00721055
KLOT 211215Z AUTO 11004KT 10SM OVC090 07/M05 A3043 RMK AO2 T00651051
KLOT 211155Z AUTO 08005KT 10SM OVC100 06/M05 A3042 RMK AO2 T00621054 10063 20042
KLOT 211135Z AUTO 09006KT 10SM OVC110 06/M05 A3042 RMK AO2 T00611055
KLOT 211115Z AUTO 11004KT 10SM SCT120 06/M06 A3042 RMK AO2 T00601059
KLOT 211055Z AUTO 10004KT 10SM CLR 06/M06 A3043 RMK AO2 T00601057
KLOT 211035Z AUTO 08003KT 10SM CLR 06/M07 A3043 RMK AO2 T00591066
KLOT 211015Z AUTO 09003KT 10SM CLR 06/M06 A3042 RMK AO2 T00571065
KLOT 210955Z AUTO 08005KT 10SM CLR 06/M06 A3042 RMK AO2 T00591065
KLOT 210935Z AUTO 09005KT 10SM CLR 06/M07 A3043 RMK AO2 T00611071
KLOT 210915Z AUTO 10006KT 10SM CLR 06/M07 A3043 RMK AO2 T00611074
KLOT 210855Z AUTO 10006KT 10SM CLR 06/M07 A3042 RMK AO2 T00611072
KLOT 210835Z AUTO 10006KT 10SM CLR 06/M07 A3043 RMK AO2 T00601071
KLOT 210815Z AUTO 09005KT 10SM CLR 06/M07 A3042 RMK AO2 T00571072
KLOT 210755Z AUTO 09006KT 10SM CLR 05/M08 A3042 RMK AO2 T00531076
KLOT 210735Z AUTO 10006KT 10SM CLR 05/M07 A3042 RMK AO2 T00491074
KLOT 210715Z AUTO 09006KT 10SM CLR 05/M07 A3042 RMK AO2 T00471075
KLOT 210655Z AUTO 08005KT 10SM CLR 05/M06 A3043 RMK AO2 T00451065
KLOT 210635Z AUTO 09006KT 10SM CLR 05/M06 A3043 RMK AO2 T00501061
KLOT 210615Z AUTO 09005KT 10SM CLR 05/M07 A3043 RMK AO2 T00501069
KLOT 210555Z AUTO 07006KT 10SM CLR 04/M07 A3043 RMK AO2 T00421071 10114 20042 401611015
KLOT 210535Z AUTO 07008KT 10SM CLR 04/M07 A3043 RMK AO2 T00441066
KLOT 210515Z AUTO 07008KT 10SM CLR 04/M07 A3044 RMK AO2 T00441066
KLOT 210455Z AUTO 06007KT 10SM CLR 04/M07 A3044 RMK AO2 T00441068
KLOT 210435Z AUTO 06006KT 10SM CLR 05/M07 A3044 RMK AO2 T00501075
KLOT 210415Z AUTO 07007KT 10SM CLR 05/M07 A3044 RMK AO2 T00501069
KLOT 210355Z AUTO 06007KT 10SM CLR 05/M07 A3043 RMK AO2 T00481071
KLOT 210335Z AUTO 06007KT 10SM CLR 05/M08 A3043 RMK AO2 T00541076
KLOT 210315Z AUTO 07007KT 10SM CLR 06/M07 A3043 RMK AO2 T00611074
KLOT 210255Z AUTO 08006KT 10SM CLR 07/M08 A3044 RMK AO2 T00681082
KLOT 210235Z AUTO 07005KT 10SM CLR 07/M08 A3044 RMK AO2 T00701083
KLOT 210215Z AUTO 08006KT 10SM CLR 08/M08 A3044 RMK AO2 T00751080
KLOT 210155Z AUTO 08006KT 10SM CLR 08/M07 A3043 RMK AO2 T00751074
KLOT 210135Z AUTO 09006KT 10SM CLR 09/M08 A3043 RMK AO2 T00861076
KLOT 210115Z AUTO 08006KT 10SM CLR 08/M07 A3043 RMK AO2 T00821074
KLOT 210055Z AUTO 08007KT 10SM CLR 09/M07 A3042 RMK AO2 T00911071
KLOT 210035Z AUTO 08008KT 10SM CLR 10/M08 A3042 RMK AO2 T01021078
KLOT 210015Z AUTO 09007KT 10SM CLR 11/M07 A3041 RMK AO2 T01081075
KLOT 202355Z AUTO 09009KT 10SM CLR 12/M08 A3041 RMK AO2 T01151076 10161 20115
KLOT 202335Z AUTO 10011KT 10SM CLR 13/M07 A3041 RMK AO2 T01301069
KLOT 202315Z AUTO 12012G16KT 10SM CLR 14/M07 A3041 RMK AO2 T01371071
KLOT 202255Z AUTO 10011KT 10SM CLR 14/M06 A3041 RMK AO2 LTG DSNT SW T01421058
KLOT 202235Z AUTO 09011KT 10SM CLR 15/M05 A3041 RMK AO2 T01481046
KLOT 202215Z AUTO 00000KT 10SM CLR 15/M06 A3042 RMK AO2 T01521056
KLOT 202155Z AUTO 00000KT 10SM CLR 16/M08 A3043 RMK AO2 T01551079
KLOT 202135Z AUTO 00000KT 10SM CLR 16/M07 A3044 RMK AO2 T01561070
KLOT 202115Z AUTO 03004KT 10SM CLR 16/M07 A3044 RMK AO2 T01561066
KLOT 202055Z AUTO 00000KT 10SM CLR 16/M07 A3044 RMK AO2 T01561073
KLOT 202035Z AUTO 24003KT 10SM CLR 16/M07 A3045 RMK AO2 T01561071
KLOT 202015Z AUTO 02004KT 10SM CLR 16/M06 A3046 RMK AO2 T01571063
KLOT 201955Z AUTO 00000KT 10SM CLR 15/M07 A3047 RMK AO2 T01531074
KLOT 201935Z AUTO 03005KT 10SM CLR 16/M05 A3047 RMK AO2 T01551055
KLOT 201915Z AUTO 17003KT 10SM CLR 15/M06 A3047 RMK AO2 T01511057
KLOT 201855Z AUTO 06004KT 10SM CLR 15/M06 A3048 RMK AO2 T01511063
KLOT 201835Z AUTO 05006KT 040V100 10SM CLR 15/M05 A3049 RMK AO2 T01491055
KLOT 201815Z AUTO 05003KT 10SM CLR 14/M06 A3049 RMK AO2 T01431056
KLOT 201755Z AUTO 00000KT 10SM CLR 15/M05 A3049 RMK AO2 T01461049 10146 20001
KLOT 201735Z AUTO 00000KT 10SM CLR 14/M05 A3050 RMK AO2 T01421049
KLOT 201715Z AUTO 11004KT 10SM CLR 14/M05 A3051 RMK AO2 T01411053
KLOT 201655Z AUTO 03007KT 10SM CLR 14/M05 A3051 RMK AO2 T01351049
KLOT 201635Z AUTO 01006KT 10SM CLR 13/M05 A3052 RMK AO2 T01311047
KLOT 201615Z AUTO 00000KT 10SM CLR 12/M05 A3052 RMK AO2 T01241054
KLOT 201555Z AUTO 00000KT 10SM CLR 12/M05 A3052 RMK AO2 T01191049
KLOT 201535Z AUTO 00000KT 10SM CLR 12/M03 A3052 RMK AO2 T01201035
KLOT 201515Z AUTO 00000KT 10SM CLR 11/M03 A3053 RMK AO2 T01111035